sensor_id;sensor_type;location;lat;lon;timestamp;temperature;humidity
10192;DHT22;17580;50.850;4.504;2022-08-01T00:01:58;21.00;99.90
10192;DHT22;17580;50.850;4.504;2022-08-01T00:04:25;20.90;99.90
10192;DHT22;17580;50.850;4.504;2022-08-01T00:06:53;21.00;99.90
10192;DHT22;17580;50.850;4.504;2022-08-01T00:09:20;21.00;99.90
10192;DHT22;17580;50.850;4.504;2022-08-01T00:11:47;21.00;99.90
10192;DHT22;17580;50.850;4.504;2022-08-01T00:14:14;21.00;99.90
10192;DHT22;17580;50.850;4.504;2022-08-01T00:16:41;21.00;99.90
10192;DHT22;17580;50.850;4.504;2022-08-01T00:19:08;21.00;99.90
10192;DHT22;17580;50.850;4.504;2022-08-01T00:21:35;21.00;99.90
10192;DHT22;17580;50.850;4.504;2022-08-01T00:24:03;21.00;99.90
10192;DHT22;17580;50.850;4.504;2022-08-01T00:26:30;21.00;99.90
10192;DHT22;17580;50.850;4.504;2022-08-01T00:28:59;20.90;99.90
10192;DHT22;17580;50.850;4.504;2022-08-01T00:31:26;21.00;99.90
10192;DHT22;17580;50.850;4.504;2022-08-01T00:33:53;21.00;99.90
10192;DHT22;17580;50.850;4.504;2022-08-01T00:36:20;20.90;99.90
10192;DHT22;17580;50.850;4.504;2022-08-01T00:38:46;20.90;99.90
10192;DHT22;17580;50.850;4.504;2022-08-01T00:41:15;20.90;99.90
10192;DHT22;17580;50.850;4.504;2022-08-01T00:43:41;20.80;99.90
10192;DHT22;17580;50.850;4.504;2022-08-01T00:46:08;20.80;99.90
10192;DHT22;17580;50.850;4.504;2022-08-01T00:48:35;20.70;99.90
10192;DHT22;17580;50.850;4.504;2022-08-01T00:51:03;20.80;99.90
10192;DHT22;17580;50.850;4.504;2022-08-01T00:53:31;20.80;99.90
10192;DHT22;17580;50.850;4.504;2022-08-01T00:55:58;20.70;99.90
10192;DHT22;17580;50.850;4.504;2022-08-01T00:58:27;20.70;99.90
10192;DHT22;17580;50.850;4.504;2022-08-01T01:00:56;20.70;99.90
10192;DHT22;17580;50.850;4.504;2022-08-01T01:03:23;20.70;99.90
10192;DHT22;17580;50.850;4.504;2022-08-01T01:05:58;20.70;99.90
10192;DHT22;17580;50.850;4.504;2022-08-01T01:08:34;20.70;99.90
10192;DHT22;17580;50.850;4.504;2022-08-01T01:11:08;20.70;99.90
10192;DHT22;17580;50.850;4.504;2022-08-01T01:13:42;20.60;99.90
10192;DHT22;17580;50.850;4.504;2022-08-01T01:16:13;20.60;99.90
10192;DHT22;17580;50.850;4.504;2022-08-01T01:18:45;20.60;99.90
10192;DHT22;17580;50.850;4.504;2022-08-01T01:21:39;20.50;99.90
10192;DHT22;17580;50.850;4.504;2022-08-01T01:24:19;20.60;99.90
10192;DHT22;17580;50.850;4.504;2022-08-01T01:26:53;20.60;99.90
10192;DHT22;17580;50.850;4.504;2022-08-01T01:29:28;20.60;99.90
10192;DHT22;17580;50.850;4.504;2022-08-01T01:32:02;20.60;99.90
10192;DHT22;17580;50.850;4.504;2022-08-01T01:34:33;20.60;99.90
10192;DHT22;17580;50.850;4.504;2022-08-01T01:37:01;20.70;99.90
10192;DHT22;17580;50.850;4.504;2022-08-01T01:39:30;20.70;99.90
10192;DHT22;17580;50.850;4.504;2022-08-01T01:41:58;20.60;99.90
10192;DHT22;17580;50.850;4.504;2022-08-01T01:44:30;20.60;99.90
10192;DHT22;17580;50.850;4.504;2022-08-01T01:46:58;20.60;99.90
10192;DHT22;17580;50.850;4.504;2022-08-01T01:49:27;20.70;99.90
10192;DHT22;17580;50.850;4.504;2022-08-01T01:51:58;20.70;99.90
10192;DHT22;17580;50.850;4.504;2022-08-01T01:54:30;20.60;99.90
10192;DHT22;17580;50.850;4.504;2022-08-01T01:56:59;20.60;99.90
10192;DHT22;17580;50.850;4.504;2022-08-01T01:59:30;20.60;99.90
10192;DHT22;17580;50.850;4.504;2022-08-01T02:01:59;20.50;99.90
10192;DHT22;17580;50.850;4.504;2022-08-01T02:04:29;20.50;99.90
10192;DHT22;17580;50.850;4.504;2022-08-01T02:06:59;20.50;99.90
10192;DHT22;17580;50.850;4.504;2022-08-01T02:09:28;20.50;99.90
10192;DHT22;17580;50.850;4.504;2022-08-01T02:11:56;20.40;99.90
10192;DHT22;17580;50.850;4.504;2022-08-01T02:14:26;20.40;99.90
10192;DHT22;17580;50.850;4.504;2022-08-01T02:16:57;20.50;99.90
10192;DHT22;17580;50.850;4.504;2022-08-01T02:19:26;20.50;99.90
10192;DHT22;17580;50.850;4.504;2022-08-01T02:21:57;20.50;99.90
10192;DHT22;17580;50.850;4.504;2022-08-01T02:24:31;20.50;99.90
10192;DHT22;17580;50.850;4.504;2022-08-01T02:27:06;20.50;99.90
10192;DHT22;17580;50.850;4.504;2022-08-01T02:29:39;20.50;99.90
10192;DHT22;17580;50.850;4.504;2022-08-01T02:32:11;20.40;99.90
10192;DHT22;17580;50.850;4.504;2022-08-01T02:34:40;20.40;99.90
10192;DHT22;17580;50.850;4.504;2022-08-01T02:37:09;20.40;99.90
10192;DHT22;17580;50.850;4.504;2022-08-01T02:39:37;20.40;99.90
10192;DHT22;17580;50.850;4.504;2022-08-01T02:42:06;20.40;99.90
10192;DHT22;17580;50.850;4.504;2022-08-01T02:44:37;20.40;99.90
10192;DHT22;17580;50.850;4.504;2022-08-01T02:47:06;20.50;99.90
10192;DHT22;17580;50.850;4.504;2022-08-01T02:49:37;20.50;99.90
10192;DHT22;17580;50.850;4.504;2022-08-01T02:52:08;20.50;99.90
10192;DHT22;17580;50.850;4.504;2022-08-01T02:54:37;20.40;99.90
10192;DHT22;17580;50.850;4.504;2022-08-01T02:57:07;20.50;99.90
10192;DHT22;17580;50.850;4.504;2022-08-01T02:59:37;20.40;99.90
10192;DHT22;17580;50.850;4.504;2022-08-01T03:02:05;20.40;99.90
10192;DHT22;17580;50.850;4.504;2022-08-01T03:04:37;20.40;99.90
10192;DHT22;17580;50.850;4.504;2022-08-01T03:07:07;20.40;99.90
10192;DHT22;17580;50.850;4.504;2022-08-01T03:09:38;20.40;99.90
10192;DHT22;17580;50.850;4.504;2022-08-01T03:12:09;20.40;99.90
10192;DHT22;17580;50.850;4.504;2022-08-01T03:14:39;20.50;99.90
10192;DHT22;17580;50.850;4.504;2022-08-01T03:17:07;20.50;99.90
10192;DHT22;17580;50.850;4.504;2022-08-01T03:19:37;20.50;99.90
10192;DHT22;17580;50.850;4.504;2022-08-01T03:22:07;20.40;99.90
10192;DHT22;17580;50.850;4.504;2022-08-01T03:24:36;20.40;99.90
10192;DHT22;17580;50.850;4.504;2022-08-01T03:27:05;20.40;99.90
10192;DHT22;17580;50.850;4.504;2022-08-01T03:29:32;20.40;99.90
10192;DHT22;17580;50.850;4.504;2022-08-01T03:32:02;20.40;99.90
10192;DHT22;17580;50.850;4.504;2022-08-01T03:34:30;20.40;99.90
10192;DHT22;17580;50.850;4.504;2022-08-01T03:37:02;20.30;99.90
10192;DHT22;17580;50.850;4.504;2022-08-01T03:39:31;20.30;99.90
10192;DHT22;17580;50.850;4.504;2022-08-01T03:42:05;20.30;99.90
10192;DHT22;17580;50.850;4.504;2022-08-01T03:44:35;20.30;99.90
10192;DHT22;17580;50.850;4.504;2022-08-01T03:47:07;20.20;99.90
10192;DHT22;17580;50.850;4.504;2022-08-01T03:49:40;20.20;99.90
10192;DHT22;17580;50.850;4.504;2022-08-01T03:52:09;20.20;99.90
10192;DHT22;17580;50.850;4.504;2022-08-01T03:54:40;20.20;99.90
10192;DHT22;17580;50.850;4.504;2022-08-01T03:57:09;20.10;99.90
10192;DHT22;17580;50.850;4.504;2022-08-01T03:59:37;20.00;99.90
10192;DHT22;17580;50.850;4.504;2022-08-01T04:02:06;20.00;99.90
10192;DHT22;17580;50.850;4.504;2022-08-01T04:04:33;20.00;99.90
10192;DHT22;17580;50.850;4.504;2022-08-01T04:07:01;20.00;99.90
10192;DHT22;17580;50.850;4.504;2022-08-01T04:09:33;20.00;99.90
10192;DHT22;17580;50.850;4.504;2022-08-01T04:12:00;19.90;99.90
10192;DHT22;17580;50.850;4.504;2022-08-01T04:14:28;19.90;99.90
10192;DHT22;17580;50.850;4.504;2022-08-01T04:16:55;19.90;99.90
10192;DHT22;17580;50.850;4.504;2022-08-01T04:19:22;19.90;99.90
10192;DHT22;17580;50.850;4.504;2022-08-01T04:21:49;19.80;99.90
10192;DHT22;17580;50.850;4.504;2022-08-01T04:24:18;19.80;99.90
10192;DHT22;17580;50.850;4.504;2022-08-01T04:26:47;19.90;99.90
10192;DHT22;17580;50.850;4.504;2022-08-01T04:29:17;19.90;99.90
10192;DHT22;17580;50.850;4.504;2022-08-01T04:31:47;19.90;99.90
10192;DHT22;17580;50.850;4.504;2022-08-01T04:34:17;19.80;99.90
10192;DHT22;17580;50.850;4.504;2022-08-01T04:36:48;19.90;99.90
10192;DHT22;17580;50.850;4.504;2022-08-01T04:39:16;19.80;99.90
10192;DHT22;17580;50.850;4.504;2022-08-01T04:41:47;19.80;99.90
10192;DHT22;17580;50.850;4.504;2022-08-01T04:44:16;19.80;99.90
10192;DHT22;17580;50.850;4.504;2022-08-01T04:46:45;19.80;99.90
10192;DHT22;17580;50.850;4.504;2022-08-01T04:49:14;19.70;99.90
10192;DHT22;17580;50.850;4.504;2022-08-01T04:51:51;19.90;99.90
10192;DHT22;17580;50.850;4.504;2022-08-01T04:54:23;19.90;99.90
10192;DHT22;17580;50.850;4.504;2022-08-01T04:56:52;19.80;99.90
10192;DHT22;17580;50.850;4.504;2022-08-01T04:59:21;19.80;99.90
10192;DHT22;17580;50.850;4.504;2022-08-01T05:02:07;19.80;99.90
10192;DHT22;17580;50.850;4.504;2022-08-01T05:04:34;19.80;99.90
10192;DHT22;17580;50.850;4.504;2022-08-01T05:07:01;19.80;99.90
10192;DHT22;17580;50.850;4.504;2022-08-01T05:09:28;19.80;99.90
10192;DHT22;17580;50.850;4.504;2022-08-01T05:11:57;19.90;99.90
10192;DHT22;17580;50.850;4.504;2022-08-01T05:14:25;20.00;99.90
10192;DHT22;17580;50.850;4.504;2022-08-01T05:16:52;20.00;99.90
10192;DHT22;17580;50.850;4.504;2022-08-01T05:19:19;20.00;99.90
10192;DHT22;17580;50.850;4.504;2022-08-01T05:21:46;20.00;99.90
10192;DHT22;17580;50.850;4.504;2022-08-01T05:24:13;20.00;99.90
10192;DHT22;17580;50.850;4.504;2022-08-01T05:26:40;20.00;99.90
10192;DHT22;17580;50.850;4.504;2022-08-01T05:29:09;20.00;99.90
10192;DHT22;17580;50.850;4.504;2022-08-01T05:31:36;20.00;99.90
10192;DHT22;17580;50.850;4.504;2022-08-01T05:34:03;20.00;99.90
10192;DHT22;17580;50.850;4.504;2022-08-01T05:36:30;20.00;99.90
10192;DHT22;17580;50.850;4.504;2022-08-01T05:38:57;20.00;99.90
10192;DHT22;17580;50.850;4.504;2022-08-01T05:41:24;20.00;99.90
10192;DHT22;17580;50.850;4.504;2022-08-01T05:43:50;20.00;99.90
10192;DHT22;17580;50.850;4.504;2022-08-01T05:46:19;20.00;99.90
10192;DHT22;17580;50.850;4.504;2022-08-01T05:48:46;20.00;99.90
10192;DHT22;17580;50.850;4.504;2022-08-01T05:51:12;20.00;99.90
10192;DHT22;17580;50.850;4.504;2022-08-01T05:53:39;20.00;99.90
10192;DHT22;17580;50.850;4.504;2022-08-01T05:56:06;20.10;99.90
10192;DHT22;17580;50.850;4.504;2022-08-01T05:58:33;20.10;99.90
10192;DHT22;17580;50.850;4.504;2022-08-01T06:01:00;20.10;99.90
10192;DHT22;17580;50.850;4.504;2022-08-01T06:03:28;20.20;99.90
10192;DHT22;17580;50.850;4.504;2022-08-01T06:05:57;20.20;99.90
10192;DHT22;17580;50.850;4.504;2022-08-01T06:08:24;20.30;99.90
10192;DHT22;17580;50.850;4.504;2022-08-01T06:10:51;20.20;99.90
10192;DHT22;17580;50.850;4.504;2022-08-01T06:13:18;20.30;99.90
10192;DHT22;17580;50.850;4.504;2022-08-01T06:15:46;20.30;99.90
10192;DHT22;17580;50.850;4.504;2022-08-01T06:18:13;20.40;99.90
10192;DHT22;17580;50.850;4.504;2022-08-01T06:20:41;20.40;99.90
10192;DHT22;17580;50.850;4.504;2022-08-01T06:23:08;20.40;99.90
10192;DHT22;17580;50.850;4.504;2022-08-01T06:25:35;20.50;99.90
10192;DHT22;17580;50.850;4.504;2022-08-01T06:28:03;20.50;99.90
10192;DHT22;17580;50.850;4.504;2022-08-01T06:30:30;20.60;99.90
10192;DHT22;17580;50.850;4.504;2022-08-01T06:32:57;20.70;99.90
10192;DHT22;17580;50.850;4.504;2022-08-01T06:35:26;20.80;99.90
10192;DHT22;17580;50.850;4.504;2022-08-01T06:37:55;20.80;99.90
10192;DHT22;17580;50.850;4.504;2022-08-01T06:40:22;20.70;99.90
10192;DHT22;17580;50.850;4.504;2022-08-01T06:42:49;20.80;99.90
10192;DHT22;17580;50.850;4.504;2022-08-01T06:45:16;20.70;99.90
10192;DHT22;17580;50.850;4.504;2022-08-01T06:47:44;20.70;99.90
10192;DHT22;17580;50.850;4.504;2022-08-01T06:50:11;20.70;99.90
10192;DHT22;17580;50.850;4.504;2022-08-01T06:52:40;20.70;99.90
10192;DHT22;17580;50.850;4.504;2022-08-01T06:55:09;20.70;99.90
10192;DHT22;17580;50.850;4.504;2022-08-01T06:57:36;20.80;99.90
10192;DHT22;17580;50.850;4.504;2022-08-01T07:00:04;21.10;99.90
10192;DHT22;17580;50.850;4.504;2022-08-01T07:02:34;21.20;99.90
10192;DHT22;17580;50.850;4.504;2022-08-01T07:05:02;21.20;99.90
10192;DHT22;17580;50.850;4.504;2022-08-01T07:07:29;21.20;99.90
10192;DHT22;17580;50.850;4.504;2022-08-01T07:09:56;21.10;99.90
10192;DHT22;17580;50.850;4.504;2022-08-01T07:12:25;21.00;99.90
10192;DHT22;17580;50.850;4.504;2022-08-01T07:14:51;21.00;99.90
10192;DHT22;17580;50.850;4.504;2022-08-01T07:17:18;21.00;99.90
10192;DHT22;17580;50.850;4.504;2022-08-01T07:19:46;21.10;99.90
10192;DHT22;17580;50.850;4.504;2022-08-01T07:22:13;21.10;99.90
10192;DHT22;17580;50.850;4.504;2022-08-01T07:24:41;21.20;99.90
10192;DHT22;17580;50.850;4.504;2022-08-01T07:27:08;21.20;99.90
10192;DHT22;17580;50.850;4.504;2022-08-01T07:29:37;21.30;99.90
10192;DHT22;17580;50.850;4.504;2022-08-01T07:32:05;21.30;99.90
10192;DHT22;17580;50.850;4.504;2022-08-01T07:34:31;21.20;99.90
10192;DHT22;17580;50.850;4.504;2022-08-01T07:36:58;21.10;99.90
10192;DHT22;17580;50.850;4.504;2022-08-01T07:39:25;21.10;99.90
10192;DHT22;17580;50.850;4.504;2022-08-01T07:41:52;21.20;99.90
10192;DHT22;17580;50.850;4.504;2022-08-01T07:44:20;21.30;99.90
10192;DHT22;17580;50.850;4.504;2022-08-01T07:46:48;21.30;99.90
10192;DHT22;17580;50.850;4.504;2022-08-01T07:49:15;21.50;99.90
10192;DHT22;17580;50.850;4.504;2022-08-01T07:51:42;21.60;99.90
10192;DHT22;17580;50.850;4.504;2022-08-01T07:54:11;21.50;99.90
10192;DHT22;17580;50.850;4.504;2022-08-01T07:56:37;21.50;99.90
10192;DHT22;17580;50.850;4.504;2022-08-01T07:59:04;21.60;99.90
10192;DHT22;17580;50.850;4.504;2022-08-01T08:01:31;21.80;99.90
10192;DHT22;17580;50.850;4.504;2022-08-01T08:04:00;21.80;99.90
10192;DHT22;17580;50.850;4.504;2022-08-01T08:06:27;21.80;99.90
10192;DHT22;17580;50.850;4.504;2022-08-01T08:08:53;21.80;99.90
10192;DHT22;17580;50.850;4.504;2022-08-01T08:11:20;21.80;99.90
10192;DHT22;17580;50.850;4.504;2022-08-01T08:13:47;21.70;99.90
10192;DHT22;17580;50.850;4.504;2022-08-01T08:16:14;21.70;99.90
10192;DHT22;17580;50.850;4.504;2022-08-01T08:18:41;21.70;99.90
10192;DHT22;17580;50.850;4.504;2022-08-01T08:21:09;21.90;99.90
10192;DHT22;17580;50.850;4.504;2022-08-01T08:23:36;22.10;99.90
10192;DHT22;17580;50.850;4.504;2022-08-01T08:26:21;22.10;99.90
10192;DHT22;17580;50.850;4.504;2022-08-01T08:28:49;22.10;99.90
10192;DHT22;17580;50.850;4.504;2022-08-01T08:31:15;22.30;99.90
10192;DHT22;17580;50.850;4.504;2022-08-01T08:33:42;22.40;99.90
10192;DHT22;17580;50.850;4.504;2022-08-01T08:36:10;22.40;99.90
10192;DHT22;17580;50.850;4.504;2022-08-01T08:38:37;22.40;99.90
10192;DHT22;17580;50.850;4.504;2022-08-01T08:41:05;22.30;99.90
10192;DHT22;17580;50.850;4.504;2022-08-01T08:43:32;22.20;99.90
10192;DHT22;17580;50.850;4.504;2022-08-01T08:46:01;22.20;99.90
10192;DHT22;17580;50.850;4.504;2022-08-01T08:48:28;22.10;99.90
10192;DHT22;17580;50.850;4.504;2022-08-01T08:50:57;22.10;99.90
10192;DHT22;17580;50.850;4.504;2022-08-01T08:53:27;22.20;99.90
10192;DHT22;17580;50.850;4.504;2022-08-01T08:55:57;22.30;99.90
10192;DHT22;17580;50.850;4.504;2022-08-01T08:58:26;22.40;99.90
10192;DHT22;17580;50.850;4.504;2022-08-01T09:00:53;22.50;99.90
10192;DHT22;17580;50.850;4.504;2022-08-01T09:03:22;22.80;96.60
10192;DHT22;17580;50.850;4.504;2022-08-01T09:05:48;23.00;95.10
10192;DHT22;17580;50.850;4.504;2022-08-01T09:08:15;22.90;95.50
10192;DHT22;17580;50.850;4.504;2022-08-01T09:10:44;22.90;97.80
10192;DHT22;17580;50.850;4.504;2022-08-01T09:13:14;22.90;96.00
10192;DHT22;17580;50.850;4.504;2022-08-01T09:15:43;22.90;95.10
10192;DHT22;17580;50.850;4.504;2022-08-01T09:18:25;22.90;94.20
10192;DHT22;17580;50.850;4.504;2022-08-01T09:21:08;22.90;90.80
10192;DHT22;17580;50.850;4.504;2022-08-01T09:23:36;23.20;92.00
10192;DHT22;17580;50.850;4.504;2022-08-01T09:26:06;24.00;84.50
10192;DHT22;17580;50.850;4.504;2022-08-01T09:28:34;24.80;70.00
10192;DHT22;17580;50.850;4.504;2022-08-01T09:31:06;25.50;68.30
10192;DHT22;17580;50.850;4.504;2022-08-01T09:33:48;25.50;59.20
10192;DHT22;17580;50.850;4.504;2022-08-01T09:36:15;25.50;59.80
10192;DHT22;17580;50.850;4.504;2022-08-01T09:38:43;25.80;58.90
10192;DHT22;17580;50.850;4.504;2022-08-01T09:41:11;25.90;59.50
10192;DHT22;17580;50.850;4.504;2022-08-01T09:43:38;27.30;53.00
10192;DHT22;17580;50.850;4.504;2022-08-01T09:46:09;28.30;51.50
10192;DHT22;17580;50.850;4.504;2022-08-01T09:48:37;28.50;48.30
10192;DHT22;17580;50.850;4.504;2022-08-01T09:51:05;27.70;47.10
10192;DHT22;17580;50.850;4.504;2022-08-01T09:53:44;26.60;50.70
10192;DHT22;17580;50.850;4.504;2022-08-01T09:56:13;26.30;51.90
10192;DHT22;17580;50.850;4.504;2022-08-01T09:58:53;26.00;52.80
10192;DHT22;17580;50.850;4.504;2022-08-01T10:01:22;26.10;54.40
10192;DHT22;17580;50.850;4.504;2022-08-01T10:04:11;26.30;53.20
10192;DHT22;17580;50.850;4.504;2022-08-01T10:06:39;26.50;53.20
10192;DHT22;17580;50.850;4.504;2022-08-01T10:09:08;26.30;52.30
10192;DHT22;17580;50.850;4.504;2022-08-01T10:11:37;26.60;53.30
10192;DHT22;17580;50.850;4.504;2022-08-01T10:14:06;28.20;50.00
10192;DHT22;17580;50.850;4.504;2022-08-01T10:16:34;29.50;48.00
10192;DHT22;17580;50.850;4.504;2022-08-01T10:19:02;29.70;43.60
10192;DHT22;17580;50.850;4.504;2022-08-01T10:21:33;29.60;44.60
10192;DHT22;17580;50.850;4.504;2022-08-01T10:24:02;29.50;41.80
10192;DHT22;17580;50.850;4.504;2022-08-01T10:26:33;28.60;41.60
10192;DHT22;17580;50.850;4.504;2022-08-01T10:29:02;27.90;43.50
10192;DHT22;17580;50.850;4.504;2022-08-01T10:31:31;27.60;44.60
10192;DHT22;17580;50.850;4.504;2022-08-01T10:33:59;27.40;47.00
10192;DHT22;17580;50.850;4.504;2022-08-01T10:36:27;27.30;47.00
10192;DHT22;17580;50.850;4.504;2022-08-01T10:38:55;27.10;47.60
10192;DHT22;17580;50.850;4.504;2022-08-01T10:41:24;27.30;48.70
10192;DHT22;17580;50.850;4.504;2022-08-01T10:43:52;27.70;45.50
10192;DHT22;17580;50.850;4.504;2022-08-01T10:46:21;28.20;45.20
10192;DHT22;17580;50.850;4.504;2022-08-01T10:48:53;27.90;46.10
10192;DHT22;17580;50.850;4.504;2022-08-01T10:51:23;27.90;44.70
10192;DHT22;17580;50.850;4.504;2022-08-01T10:53:52;27.60;45.20
10192;DHT22;17580;50.850;4.504;2022-08-01T10:56:20;27.70;46.50
10192;DHT22;17580;50.850;4.504;2022-08-01T10:58:48;27.70;44.10
10192;DHT22;17580;50.850;4.504;2022-08-01T11:01:21;27.50;45.10
10192;DHT22;17580;50.850;4.504;2022-08-01T11:04:08;27.90;43.10
10192;DHT22;17580;50.850;4.504;2022-08-01T11:06:42;28.10;43.30
10192;DHT22;17580;50.850;4.504;2022-08-01T11:09:24;28.10;44.00
10192;DHT22;17580;50.850;4.504;2022-08-01T11:12:04;28.10;43.30
10192;DHT22;17580;50.850;4.504;2022-08-01T11:14:33;28.60;40.80
10192;DHT22;17580;50.850;4.504;2022-08-01T11:17:32;28.30;40.10
10192;DHT22;17580;50.850;4.504;2022-08-01T11:20:07;28.70;39.80
10192;DHT22;17580;50.850;4.504;2022-08-01T11:26:13;29.70;36.40
10192;DHT22;17580;50.850;4.504;2022-08-01T11:28:42;29.60;32.90
10192;DHT22;17580;50.850;4.504;2022-08-01T11:31:32;29.40;35.30
10192;DHT22;17580;50.850;4.504;2022-08-01T11:34:03;29.60;36.70
10192;DHT22;17580;50.850;4.504;2022-08-01T11:36:31;30.30;32.50
10192;DHT22;17580;50.850;4.504;2022-08-01T11:39:14;29.70;32.00
10192;DHT22;17580;50.850;4.504;2022-08-01T11:41:43;29.60;31.50
10192;DHT22;17580;50.850;4.504;2022-08-01T11:44:12;30.20;31.80
10192;DHT22;17580;50.850;4.504;2022-08-01T11:46:50;30.20;32.50
10192;DHT22;17580;50.850;4.504;2022-08-01T11:49:47;30.50;31.60
10192;DHT22;17580;50.850;4.504;2022-08-01T11:52:17;30.60;29.00
10192;DHT22;17580;50.850;4.504;2022-08-01T11:54:46;30.80;30.00
10192;DHT22;17580;50.850;4.504;2022-08-01T11:57:15;31.10;30.80
10192;DHT22;17580;50.850;4.504;2022-08-01T11:59:45;31.00;28.80
10192;DHT22;17580;50.850;4.504;2022-08-01T12:02:18;30.90;30.00
10192;DHT22;17580;50.850;4.504;2022-08-01T12:04:48;31.10;27.10
10192;DHT22;17580;50.850;4.504;2022-08-01T12:07:16;30.80;26.60
10192;DHT22;17580;50.850;4.504;2022-08-01T12:09:44;30.60;26.90
10192;DHT22;17580;50.850;4.504;2022-08-01T12:12:15;30.70;27.10
10192;DHT22;17580;50.850;4.504;2022-08-01T12:14:42;31.20;28.20
10192;DHT22;17580;50.850;4.504;2022-08-01T12:17:10;30.60;27.20
10192;DHT22;17580;50.850;4.504;2022-08-01T12:19:37;30.40;29.60
10192;DHT22;17580;50.850;4.504;2022-08-01T12:22:12;30.20;28.20
10192;DHT22;17580;50.850;4.504;2022-08-01T12:24:42;30.10;29.00
10192;DHT22;17580;50.850;4.504;2022-08-01T12:27:09;30.50;27.80
10192;DHT22;17580;50.850;4.504;2022-08-01T12:29:39;30.60;28.20
10192;DHT22;17580;50.850;4.504;2022-08-01T12:32:22;30.30;28.70
10192;DHT22;17580;50.850;4.504;2022-08-01T12:34:50;29.70;26.30
10192;DHT22;17580;50.850;4.504;2022-08-01T12:37:18;29.40;28.00
10192;DHT22;17580;50.850;4.504;2022-08-01T12:39:46;29.10;29.20
10192;DHT22;17580;50.850;4.504;2022-08-01T12:42:13;29.00;31.00
10192;DHT22;17580;50.850;4.504;2022-08-01T12:44:43;29.90;31.60
10192;DHT22;17580;50.850;4.504;2022-08-01T12:47:11;30.40;28.20
10192;DHT22;17580;50.850;4.504;2022-08-01T12:49:39;30.50;28.20
10192;DHT22;17580;50.850;4.504;2022-08-01T12:52:09;30.70;26.90
10192;DHT22;17580;50.850;4.504;2022-08-01T12:55:02;30.30;27.40
10192;DHT22;17580;50.850;4.504;2022-08-01T12:57:29;29.60;28.10
10192;DHT22;17580;50.850;4.504;2022-08-01T13:00:09;29.40;28.20
10192;DHT22;17580;50.850;4.504;2022-08-01T13:02:37;29.80;30.10
10192;DHT22;17580;50.850;4.504;2022-08-01T13:05:05;30.20;27.00
10192;DHT22;17580;50.850;4.504;2022-08-01T13:07:40;29.50;26.40
10192;DHT22;17580;50.850;4.504;2022-08-01T13:10:09;29.00;27.10
10192;DHT22;17580;50.850;4.504;2022-08-01T13:12:37;28.90;27.60
10192;DHT22;17580;50.850;4.504;2022-08-01T13:15:26;28.70;29.30
10192;DHT22;17580;50.850;4.504;2022-08-01T13:17:53;28.50;29.10
10192;DHT22;17580;50.850;4.504;2022-08-01T13:20:30;28.30;29.00
10192;DHT22;17580;50.850;4.504;2022-08-01T13:23:11;29.00;28.90
10192;DHT22;17580;50.850;4.504;2022-08-01T13:25:52;28.90;28.70
10192;DHT22;17580;50.850;4.504;2022-08-01T13:28:21;28.70;28.40
10192;DHT22;17580;50.850;4.504;2022-08-01T13:30:57;28.40;28.20
10192;DHT22;17580;50.850;4.504;2022-08-01T13:33:25;28.50;29.10
10192;DHT22;17580;50.850;4.504;2022-08-01T13:35:54;29.20;27.20
10192;DHT22;17580;50.850;4.504;2022-08-01T13:38:22;29.80;25.90
10192;DHT22;17580;50.850;4.504;2022-08-01T13:41:10;29.30;26.30
10192;DHT22;17580;50.850;4.504;2022-08-01T13:43:40;28.70;25.70
10192;DHT22;17580;50.850;4.504;2022-08-01T13:46:07;28.60;26.60
10192;DHT22;17580;50.850;4.504;2022-08-01T13:48:33;28.60;26.80
10192;DHT22;17580;50.850;4.504;2022-08-01T13:51:01;28.00;26.40
10192;DHT22;17580;50.850;4.504;2022-08-01T13:53:28;27.50;26.60
10192;DHT22;17580;50.850;4.504;2022-08-01T13:55:56;27.30;26.30
10192;DHT22;17580;50.850;4.504;2022-08-01T13:58:24;27.30;27.60
10192;DHT22;17580;50.850;4.504;2022-08-01T14:00:51;27.60;28.90
10192;DHT22;17580;50.850;4.504;2022-08-01T14:03:18;27.80;28.00
10192;DHT22;17580;50.850;4.504;2022-08-01T14:05:45;28.10;28.40
10192;DHT22;17580;50.850;4.504;2022-08-01T14:08:12;28.40;28.20
10192;DHT22;17580;50.850;4.504;2022-08-01T14:10:39;28.80;25.90
10192;DHT22;17580;50.850;4.504;2022-08-01T14:13:06;29.10;26.00
10192;DHT22;17580;50.850;4.504;2022-08-01T14:15:34;29.30;25.00
10192;DHT22;17580;50.850;4.504;2022-08-01T14:18:01;29.30;25.90
10192;DHT22;17580;50.850;4.504;2022-08-01T14:20:28;29.30;24.80
10192;DHT22;17580;50.850;4.504;2022-08-01T14:22:55;29.00;23.70
10192;DHT22;17580;50.850;4.504;2022-08-01T14:25:22;29.00;24.70
10192;DHT22;17580;50.850;4.504;2022-08-01T14:27:50;28.80;24.80
10192;DHT22;17580;50.850;4.504;2022-08-01T14:30:17;28.00;25.10
10192;DHT22;17580;50.850;4.504;2022-08-01T14:32:45;28.10;26.40
10192;DHT22;17580;50.850;4.504;2022-08-01T14:35:12;28.50;24.50
10192;DHT22;17580;50.850;4.504;2022-08-01T14:37:39;28.30;24.10
10192;DHT22;17580;50.850;4.504;2022-08-01T14:40:09;28.00;24.90
10192;DHT22;17580;50.850;4.504;2022-08-01T14:42:38;27.80;25.00
10192;DHT22;17580;50.850;4.504;2022-08-01T14:45:06;27.60;24.80
10192;DHT22;17580;50.850;4.504;2022-08-01T14:47:35;27.80;25.30
10192;DHT22;17580;50.850;4.504;2022-08-01T14:50:06;27.60;25.20
10192;DHT22;17580;50.850;4.504;2022-08-01T14:52:33;27.30;26.20
10192;DHT22;17580;50.850;4.504;2022-08-01T14:55:04;27.30;25.50
10192;DHT22;17580;50.850;4.504;2022-08-01T14:57:31;27.90;26.20
10192;DHT22;17580;50.850;4.504;2022-08-01T14:59:58;28.20;26.60
10192;DHT22;17580;50.850;4.504;2022-08-01T15:02:25;28.20;25.40
10192;DHT22;17580;50.850;4.504;2022-08-01T15:04:52;28.50;25.50
10192;DHT22;17580;50.850;4.504;2022-08-01T15:07:20;28.60;25.10
10192;DHT22;17580;50.850;4.504;2022-08-01T15:09:47;28.60;24.50
10192;DHT22;17580;50.850;4.504;2022-08-01T15:12:14;28.30;24.20
10192;DHT22;17580;50.850;4.504;2022-08-01T15:14:41;28.40;23.90
10192;DHT22;17580;50.850;4.504;2022-08-01T15:17:18;28.30;24.10
10192;DHT22;17580;50.850;4.504;2022-08-01T15:19:45;28.30;24.90
10192;DHT22;17580;50.850;4.504;2022-08-01T15:22:13;28.40;24.30
10192;DHT22;17580;50.850;4.504;2022-08-01T15:24:42;28.40;22.70
10192;DHT22;17580;50.850;4.504;2022-08-01T15:27:09;28.30;23.60
10192;DHT22;17580;50.850;4.504;2022-08-01T15:29:37;28.30;25.00
10192;DHT22;17580;50.850;4.504;2022-08-01T15:32:05;28.20;23.40
10192;DHT22;17580;50.850;4.504;2022-08-01T15:34:33;28.00;23.20
10192;DHT22;17580;50.850;4.504;2022-08-01T15:37:03;27.70;22.70
10192;DHT22;17580;50.850;4.504;2022-08-01T15:39:30;27.40;22.60
10192;DHT22;17580;50.850;4.504;2022-08-01T15:42:03;27.60;23.20
10192;DHT22;17580;50.850;4.504;2022-08-01T15:44:31;27.80;22.90
10192;DHT22;17580;50.850;4.504;2022-08-01T15:46:59;27.70;21.80
10192;DHT22;17580;50.850;4.504;2022-08-01T15:49:26;27.70;21.60